Time;durP1;ratioP1;P1;durP2;ratioP2;P2;SDS_P1;SDS_P2;PMS_P1;PMS_P2;Temp;Humidity;BMP_temperature;BMP_pressure;BME280_temperature;BME280_humidity;BME280_pressure;Samples;Min_cycle;Max_cycle;Signal;HPM_P1;HPM_P2
2023/03/06 00:00:22;;;;;;;;;;;4.60;81.60;;;;;;5088914;28;19928;-77
2023/03/06 00:02:49;;;;;;;;;;;4.60;81.70;;;;;;5092130;28;19981;-77
2023/03/06 00:05:16;;;;;;;;;;;4.60;81.70;;;;;;5090674;28;19924;-76
2023/03/06 00:07:42;;;;;;;;;;;4.60;81.70;;;;;;5093406;28;19977;-77
2023/03/06 00:10:13;;;;;;;;;;;4.60;81.70;;;;;;5092983;28;19931;-76
2023/03/06 00:12:39;;;;;;;;;;;4.60;81.70;;;;;;5090964;28;19935;-76
2023/03/06 00:15:06;;;;;;;;;;;4.60;81.60;;;;;;5092769;28;19936;-77
2023/03/06 00:17:33;;;;;;;;;;;4.60;81.60;;;;;;5088905;28;19947;-77
2023/03/06 00:19:59;;;;;;;;;;;4.60;81.50;;;;;;5100872;28;20476;-77
2023/03/06 00:22:26;;;;;;;;;;;4.60;81.50;;;;;;5097540;28;19973;-76
2023/03/06 00:24:53;;;;;;;;;;;4.60;81.60;;;;;;5099353;28;19935;-77
2023/03/06 00:27:22;;;;;;;;;;;4.60;81.60;;;;;;5097140;27;19928;-77
2023/03/06 00:29:49;;;;;;;;;;;4.60;81.60;;;;;;5102238;28;19928;-77
2023/03/06 00:32:15;;;;;;;;;;;4.60;81.60;;;;;;5102235;28;19934;-77
2023/03/06 00:34:42;;;;;;;;;;;4.50;81.50;;;;;;5097981;28;20360;-77
2023/03/06 00:37:08;;;;;;;;;;;4.50;81.40;;;;;;5095353;27;19936;-77
2023/03/06 00:39:35;;;;;;;;;;;4.50;81.40;;;;;;5098200;28;19981;-77
2023/03/06 00:42:02;;;;;;;;;;;4.50;81.40;;;;;;5098046;28;20293;-77
2023/03/06 00:44:30;;;;;;;;;;;4.50;81.50;;;;;;5097401;28;19928;-78
2023/03/06 00:46:56;;;;;;;;;;;4.60;81.60;;;;;;5092485;28;19924;-78
2023/03/06 00:49:23;;;;;;;;;;;4.50;81.50;;;;;;5094778;28;19985;-77
2023/03/06 00:51:50;;;;;;;;;;;4.50;81.40;;;;;;5095403;27;19924;-77
2023/03/06 00:54:16;;;;;;;;;;;4.50;81.40;;;;;;5099256;28;19924;-77
2023/03/06 00:56:43;;;;;;;;;;;4.50;81.40;;;;;;5097601;28;19967;-78
2023/03/06 00:59:09;;;;;;;;;;;4.50;81.50;;;;;;5093023;28;19931;-77
2023/03/06 01:01:37;;;;;;;;;;;4.50;81.50;;;;;;5096926;28;19993;-77
2023/03/06 01:04:04;;;;;;;;;;;4.50;81.50;;;;;;5095244;28;20415;-78
2023/03/06 01:06:31;;;;;;;;;;;4.50;81.50;;;;;;5100707;27;19936;-77
2023/03/06 01:08:57;;;;;;;;;;;4.50;81.50;;;;;;5091536;28;20335;-76
2023/03/06 01:11:24;;;;;;;;;;;4.40;81.40;;;;;;5093313;28;20203;-76
2023/03/06 01:13:51;;;;;;;;;;;4.50;81.60;;;;;;5097484;27;20299;-77
2023/03/06 01:16:18;;;;;;;;;;;4.40;81.60;;;;;;5091551;27;20443;-78
2023/03/06 01:18:46;;;;;;;;;;;4.50;81.50;;;;;;5092487;28;19937;-78
2023/03/06 01:21:13;;;;;;;;;;;4.50;81.50;;;;;;5092448;27;19944;-77
2023/03/06 01:23:39;;;;;;;;;;;4.50;81.50;;;;;;5093179;28;19935;-78
2023/03/06 01:26:06;;;;;;;;;;;4.50;81.50;;;;;;5090958;28;20001;-77
2023/03/06 01:28:34;;;;;;;;;;;4.40;81.50;;;;;;5091032;28;20022;-78
2023/03/06 01:31:00;;;;;;;;;;;4.50;81.50;;;;;;5091514;28;19928;-77
2023/03/06 01:33:27;;;;;;;;;;;4.40;81.40;;;;;;5093514;28;19993;-77
2023/03/06 01:35:55;;;;;;;;;;;4.40;81.40;;;;;;5095492;28;19936;-77
2023/03/06 01:38:21;;;;;;;;;;;4.40;81.40;;;;;;5093678;28;19928;-77
2023/03/06 01:40:48;;;;;;;;;;;4.40;81.40;;;;;;5099734;27;20460;-77
2023/03/06 01:43:25;;;;;;;;;;;4.40;81.40;;;;;;5091626;28;20472;-78
2023/03/06 01:46:18;;;;;;;;;;;4.40;81.50;;;;;;5089882;28;19975;-78
2023/03/06 01:48:46;;;;;;;;;;;4.40;81.50;;;;;;5073026;28;19927;-77
2023/03/06 01:51:15;;;;;;;;;;;4.40;81.50;;;;;;5089298;28;21272;-78
2023/03/06 01:53:43;;;;;;;;;;;4.40;81.50;;;;;;5090453;28;20405;-76
2023/03/06 01:56:10;;;;;;;;;;;4.40;81.50;;;;;;5094794;28;19932;-78
2023/03/06 01:58:37;;;;;;;;;;;4.40;81.60;;;;;;5089014;27;19940;-77
2023/03/06 02:01:04;;;;;;;;;;;4.40;81.60;;;;;;5092862;28;19928;-77
2023/03/06 02:03:31;;;;;;;;;;;4.40;81.60;;;;;;5101239;27;19927;-77
2023/03/06 02:05:59;;;;;;;;;;;4.40;81.60;;;;;;5097549;28;20404;-77
2023/03/06 02:08:27;;;;;;;;;;;4.40;81.60;;;;;;5093228;28;19935;-77
2023/03/06 02:10:58;;;;;;;;;;;4.40;81.70;;;;;;5100862;27;20393;-78
2023/03/06 02:13:24;;;;;;;;;;;4.30;81.70;;;;;;5091074;27;19932;-77
2023/03/06 02:15:51;;;;;;;;;;;4.40;81.70;;;;;;5090614;28;20290;-77
2023/03/06 02:18:17;;;;;;;;;;;4.40;81.70;;;;;;5082249;28;19932;-77
2023/03/06 02:20:45;;;;;;;;;;;4.40;81.70;;;;;;5083658;28;19983;-77
2023/03/06 02:23:14;;;;;;;;;;;4.30;81.60;;;;;;5082165;28;20397;-78
2023/03/06 02:25:44;;;;;;;;;;;4.30;81.70;;;;;;5082016;28;20447;-78
2023/03/06 02:28:11;;;;;;;;;;;4.30;81.80;;;;;;5073487;28;19928;-77
2023/03/06 02:30:38;;;;;;;;;;;4.40;81.90;;;;;;5081239;27;20499;-78
2023/03/06 02:33:05;;;;;;;;;;;4.30;81.80;;;;;;5088226;28;19924;-76
2023/03/06 02:35:33;;;;;;;;;;;4.40;81.80;;;;;;5092235;28;19934;-78
2023/03/06 02:38:02;;;;;;;;;;;4.30;81.80;;;;;;5092074;28;20345;-78
2023/03/06 02:40:28;;;;;;;;;;;4.30;81.80;;;;;;5091820;28;19927;-77
2023/03/06 02:42:57;;;;;;;;;;;4.30;81.90;;;;;;5095179;28;19927;-78
2023/03/06 02:45:27;;;;;;;;;;;4.30;82.00;;;;;;5089711;28;19932;-76
2023/03/06 02:47:53;;;;;;;;;;;4.30;81.90;;;;;;5092685;28;19939;-78
2023/03/06 02:50:20;;;;;;;;;;;4.30;82.00;;;;;;5092184;28;19938;-77
2023/03/06 02:52:46;;;;;;;;;;;4.30;82.00;;;;;;5092873;28;19932;-77
2023/03/06 02:55:13;;;;;;;;;;;4.30;82.00;;;;;;5093752;28;19988;-78
2023/03/06 02:57:39;;;;;;;;;;;4.30;82.10;;;;;;5093390;28;19935;-77
2023/03/06 03:00:08;;;;;;;;;;;4.30;82.10;;;;;;5091383;27;20540;-76
2023/03/06 03:02:35;;;;;;;;;;;4.30;82.10;;;;;;5090231;27;19928;-77
2023/03/06 03:05:01;;;;;;;;;;;4.30;82.20;;;;;;5096218;28;20397;-77
2023/03/06 03:07:28;;;;;;;;;;;4.30;82.30;;;;;;5088378;28;20703;-76
2023/03/06 03:09:54;;;;;;;;;;;4.30;82.30;;;;;;5095803;28;19935;-77
2023/03/06 03:12:21;;;;;;;;;;;4.20;82.30;;;;;;5093431;28;19928;-78
2023/03/06 03:14:47;;;;;;;;;;;4.30;82.40;;;;;;5098293;28;20026;-77
2023/03/06 03:17:16;;;;;;;;;;;4.30;82.40;;;;;;5097328;28;19939;-77
2023/03/06 03:19:42;;;;;;;;;;;4.30;82.60;;;;;;5095222;28;19932;-78
2023/03/06 03:22:09;;;;;;;;;;;4.30;82.60;;;;;;5091698;28;19928;-77
2023/03/06 03:24:35;;;;;;;;;;;4.30;82.60;;;;;;5093308;28;19936;-78
2023/03/06 03:27:02;;;;;;;;;;;4.20;82.60;;;;;;5093566;28;19927;-77
2023/03/06 03:29:28;;;;;;;;;;;4.30;82.70;;;;;;5093661;28;20686;-77
2023/03/06 03:31:55;;;;;;;;;;;4.30;82.80;;;;;;5092317;28;19928;-77
2023/03/06 03:34:23;;;;;;;;;;;4.30;82.90;;;;;;5096150;28;19985;-77
2023/03/06 03:36:49;;;;;;;;;;;4.20;82.80;;;;;;5090550;28;19954;-77
2023/03/06 03:39:16;;;;;;;;;;;4.20;82.80;;;;;;5092358;28;20056;-77
2023/03/06 03:41:42;;;;;;;;;;;4.30;82.80;;;;;;5095236;28;19932;-77
2023/03/06 03:44:09;;;;;;;;;;;4.20;82.80;;;;;;5089186;28;20348;-77
2023/03/06 03:46:36;;;;;;;;;;;4.20;82.80;;;;;;5091878;28;20325;-77
2023/03/06 03:49:03;;;;;;;;;;;4.20;82.80;;;;;;5090008;28;19927;-78
2023/03/06 03:51:31;;;;;;;;;;;4.20;82.90;;;;;;5094899;28;20343;-77
2023/03/06 03:53:57;;;;;;;;;;;4.20;82.90;;;;;;5092133;28;19928;-77
2023/03/06 03:56:24;;;;;;;;;;;4.20;83.00;;;;;;5097708;28;19932;-77
2023/03/06 03:58:51;;;;;;;;;;;4.20;83.00;;;;;;5096453;28;20619;-77
2023/03/06 04:01:18;;;;;;;;;;;4.20;83.00;;;;;;5096578;28;19935;-78
2023/03/06 04:03:44;;;;;;;;;;;4.20;83.00;;;;;;5098712;28;19936;-78
2023/03/06 04:06:11;;;;;;;;;;;4.20;83.00;;;;;;5099506;28;19933;-77
2023/03/06 04:08:39;;;;;;;;;;;4.20;83.00;;;;;;5091202;28;19936;-77
2023/03/06 04:11:05;;;;;;;;;;;4.20;83.20;;;;;;5103833;27;20319;-78
2023/03/06 04:13:32;;;;;;;;;;;4.20;83.20;;;;;;5093928;28;20604;-77
2023/03/06 04:15:58;;;;;;;;;;;4.20;83.10;;;;;;5099534;28;19924;-78
2023/03/06 04:18:25;;;;;;;;;;;4.20;83.20;;;;;;5095583;28;19950;-77
2023/03/06 04:20:52;;;;;;;;;;;4.20;83.30;;;;;;5099055;28;19993;-77
2023/03/06 04:23:19;;;;;;;;;;;4.20;84.10;;;;;;5094878;28;19973;-77
2023/03/06 04:25:47;;;;;;;;;;;4.20;83.30;;;;;;5100099;28;19988;-77
2023/03/06 04:28:14;;;;;;;;;;;4.20;83.30;;;;;;5095941;28;20319;-79
2023/03/06 04:30:40;;;;;;;;;;;4.20;83.30;;;;;;5094004;28;19984;-77
2023/03/06 04:33:07;;;;;;;;;;;4.10;83.30;;;;;;5101241;28;19934;-77
2023/03/06 04:35:34;;;;;;;;;;;4.20;83.40;;;;;;5094591;28;19932;-77
2023/03/06 04:38:00;;;;;;;;;;;4.10;83.40;;;;;;5101209;28;19927;-77
2023/03/06 04:40:28;;;;;;;;;;;4.20;83.40;;;;;;5091474;28;19963;-77
2023/03/06 04:42:56;;;;;;;;;;;4.10;83.40;;;;;;5096671;28;19936;-78
2023/03/06 04:45:23;;;;;;;;;;;4.20;83.40;;;;;;5095891;28;19928;-78
2023/03/06 04:47:49;;;;;;;;;;;4.10;83.40;;;;;;5094269;28;19939;-77
2023/03/06 04:50:16;;;;;;;;;;;4.10;83.40;;;;;;5094872;28;19935;-77
2023/03/06 04:52:43;;;;;;;;;;;4.10;83.40;;;;;;5090350;28;20057;-77
2023/03/06 04:55:11;;;;;;;;;;;4.10;83.40;;;;;;5100340;28;19928;-77
2023/03/06 04:57:38;;;;;;;;;;;4.10;83.50;;;;;;5096514;28;20013;-77
2023/03/06 05:00:08;;;;;;;;;;;4.10;83.50;;;;;;5094184;28;19966;-77
2023/03/06 05:02:35;;;;;;;;;;;4.10;83.50;;;;;;5094514;28;19938;-78
2023/03/06 05:05:02;;;;;;;;;;;4.10;83.60;;;;;;5096518;28;19931;-77
2023/03/06 05:07:28;;;;;;;;;;;4.10;83.60;;;;;;5099658;27;19932;-78
2023/03/06 05:09:55;;;;;;;;;;;4.10;83.60;;;;;;5099476;27;19981;-77
2023/03/06 05:12:21;;;;;;;;;;;4.10;83.60;;;;;;5097775;28;19923;-77
2023/03/06 05:14:48;;;;;;;;;;;4.10;83.60;;;;;;5095044;27;19927;-78
2023/03/06 05:17:16;;;;;;;;;;;4.10;83.60;;;;;;5088420;28;20359;-77
2023/03/06 05:19:42;;;;;;;;;;;4.10;83.60;;;;;;5090468;28;19989;-77
2023/03/06 05:22:09;;;;;;;;;;;4.10;83.60;;;;;;5097989;28;19973;-77
2023/03/06 05:24:36;;;;;;;;;;;4.10;83.60;;;;;;5095967;28;19928;-77
2023/03/06 05:27:03;;;;;;;;;;;4.10;83.70;;;;;;5101518;28;19954;-77
2023/03/06 05:29:29;;;;;;;;;;;4.00;83.60;;;;;;5094253;28;19958;-78
2023/03/06 05:31:56;;;;;;;;;;;4.00;83.60;;;;;;5096519;28;20815;-78
2023/03/06 05:34:23;;;;;;;;;;;4.00;83.70;;;;;;5092460;28;19932;-77
2023/03/06 05:36:50;;;;;;;;;;;4.00;83.70;;;;;;5089907;27;19931;-78
2023/03/06 05:39:16;;;;;;;;;;;4.00;83.80;;;;;;5098177;28;19936;-77
2023/03/06 05:41:43;;;;;;;;;;;4.00;83.70;;;;;;5093907;28;19940;-78
2023/03/06 05:44:10;;;;;;;;;;;4.00;83.80;;;;;;5092946;28;19935;-76
2023/03/06 05:46:36;;;;;;;;;;;4.00;83.80;;;;;;5091113;28;19932;-77
2023/03/06 05:49:03;;;;;;;;;;;4.00;83.80;;;;;;5088780;28;19928;-78
2023/03/06 05:51:31;;;;;;;;;;;4.00;83.80;;;;;;5091844;28;20580;-77
2023/03/06 05:53:57;;;;;;;;;;;4.00;83.80;;;;;;5092587;28;19928;-77
2023/03/06 05:56:24;;;;;;;;;;;4.00;83.80;;;;;;5098351;27;19977;-78
2023/03/06 05:58:50;;;;;;;;;;;4.00;83.80;;;;;;5095974;28;19935;-77
2023/03/06 06:01:18;;;;;;;;;;;4.00;83.80;;;;;;5093436;27;20359;-77
2023/03/06 06:03:45;;;;;;;;;;;4.00;83.80;;;;;;5085713;28;20013;-78
2023/03/06 06:06:13;;;;;;;;;;;4.00;83.80;;;;;;5093180;28;19928;-77
2023/03/06 06:08:41;;;;;;;;;;;4.00;83.80;;;;;;5093332;28;19931;-77
2023/03/06 06:11:08;;;;;;;;;;;4.00;83.90;;;;;;5095301;28;19932;-77
2023/03/06 06:13:35;;;;;;;;;;;4.00;83.90;;;;;;5084797;28;19932;-78
2023/03/06 06:16:06;;;;;;;;;;;4.00;83.90;;;;;;5085849;28;19935;-76
2023/03/06 06:18:32;;;;;;;;;;;4.00;84.00;;;;;;5093723;28;19939;-78
2023/03/06 06:20:59;;;;;;;;;;;4.00;83.90;;;;;;5089572;28;19928;-77
2023/03/06 06:23:25;;;;;;;;;;;4.00;83.90;;;;;;5093822;28;19931;-77
2023/03/06 06:25:53;;;;;;;;;;;3.90;83.80;;;;;;5094251;28;19973;-78
2023/03/06 06:28:20;;;;;;;;;;;4.00;83.90;;;;;;5092148;28;19928;-78
2023/03/06 06:30:46;;;;;;;;;;;4.00;83.90;;;;;;5093232;28;19928;-78
2023/03/06 06:33:13;;;;;;;;;;;4.00;84.20;;;;;;5090288;28;19997;-78
2023/03/06 06:35:40;;;;;;;;;;;3.90;84.20;;;;;;5092770;28;20563;-78
2023/03/06 06:38:06;;;;;;;;;;;3.90;84.30;;;;;;5096972;28;20393;-78
2023/03/06 06:40:33;;;;;;;;;;;3.90;84.40;;;;;;5089911;27;19934;-78
2023/03/06 06:43:01;;;;;;;;;;;3.90;84.40;;;;;;5096404;28;19972;-77
2023/03/06 06:45:27;;;;;;;;;;;3.90;84.30;;;;;;5096847;28;19928;-77
2023/03/06 06:47:54;;;;;;;;;;;3.90;84.30;;;;;;5096668;28;20076;-78
2023/03/06 06:50:20;;;;;;;;;;;3.90;84.30;;;;;;5093833;28;19936;-78
2023/03/06 06:52:47;;;;;;;;;;;4.00;84.30;;;;;;5097581;28;19931;-78
2023/03/06 06:55:13;;;;;;;;;;;3.90;84.30;;;;;;5100629;28;19954;-78
2023/03/06 06:57:40;;;;;;;;;;;4.00;84.30;;;;;;5093685;28;19931;-78
2023/03/06 07:00:11;;;;;;;;;;;4.00;84.30;;;;;;5098415;28;20015;-78
2023/03/06 07:02:37;;;;;;;;;;;4.00;84.30;;;;;;5095066;27;20028;-78
2023/03/06 07:05:04;;;;;;;;;;;4.00;84.40;;;;;;5097387;28;19955;-78
2023/03/06 07:07:31;;;;;;;;;;;3.90;84.30;;;;;;5092933;28;19977;-78
2023/03/06 07:09:57;;;;;;;;;;;4.00;84.50;;;;;;5100138;28;20434;-78
2023/03/06 07:12:24;;;;;;;;;;;4.00;84.60;;;;;;5098232;28;19928;-77
2023/03/06 07:14:50;;;;;;;;;;;4.00;84.50;;;;;;5089157;28;19932;-78
2023/03/06 07:17:18;;;;;;;;;;;4.00;84.50;;;;;;5096686;28;19928;-78
2023/03/06 07:19:45;;;;;;;;;;;3.90;84.50;;;;;;5098659;28;19928;-77
2023/03/06 07:22:11;;;;;;;;;;;4.00;84.60;;;;;;5094271;28;20607;-77
2023/03/06 07:24:38;;;;;;;;;;;4.00;84.60;;;;;;5097960;28;19980;-78
2023/03/06 07:27:05;;;;;;;;;;;3.90;84.70;;;;;;5094887;28;19932;-77
2023/03/06 07:29:32;;;;;;;;;;;4.00;84.80;;;;;;5094616;28;20434;-77
2023/03/06 07:31:59;;;;;;;;;;;4.00;84.90;;;;;;5096272;28;19939;-79
2023/03/06 07:34:27;;;;;;;;;;;4.00;84.90;;;;;;5100459;28;20253;-78
2023/03/06 07:36:54;;;;;;;;;;;4.00;85.70;;;;;;5099812;28;20068;-78
2023/03/06 07:39:20;;;;;;;;;;;4.00;85.00;;;;;;5093582;28;20377;-78
2023/03/06 07:41:47;;;;;;;;;;;4.00;85.00;;;;;;5095219;28;20170;-78
2023/03/06 07:44:13;;;;;;;;;;;4.00;85.10;;;;;;5092496;28;20306;-77
2023/03/06 07:46:40;;;;;;;;;;;4.00;85.10;;;;;;5092229;28;19928;-78
2023/03/06 07:49:06;;;;;;;;;;;4.00;85.20;;;;;;5089453;28;20399;-77
2023/03/06 07:51:34;;;;;;;;;;;4.00;85.40;;;;;;5089732;28;20473;-78
2023/03/06 07:54:01;;;;;;;;;;;4.00;85.50;;;;;;5096130;28;19928;-78
2023/03/06 07:56:28;;;;;;;;;;;4.00;85.50;;;;;;5093091;28;19924;-78
2023/03/06 07:58:54;;;;;;;;;;;4.00;85.70;;;;;;5087630;28;19932;-78
2023/03/06 08:01:22;;;;;;;;;;;4.00;85.70;;;;;;5089381;28;20347;-78
2023/03/06 08:03:49;;;;;;;;;;;4.00;85.70;;;;;;5093463;28;19927;-78
2023/03/06 08:06:16;;;;;;;;;;;4.00;85.80;;;;;;5097128;28;20581;-78
2023/03/06 08:08:44;;;;;;;;;;;4.00;85.90;;;;;;5092000;28;19981;-78
2023/03/06 08:11:12;;;;;;;;;;;4.00;85.90;;;;;;5096757;28;19927;-78
2023/03/06 08:13:39;;;;;;;;;;;4.00;85.90;;;;;;5091367;28;20527;-78
2023/03/06 08:16:06;;;;;;;;;;;4.00;86.00;;;;;;5098393;28;19928;-77
2023/03/06 08:18:33;;;;;;;;;;;4.00;86.10;;;;;;5096219;28;19951;-77
2023/03/06 08:21:03;;;;;;;;;;;3.90;86.00;;;;;;5095069;28;20038;-77
2023/03/06 08:23:30;;;;;;;;;;;4.00;86.10;;;;;;5103122;28;19959;-78
2023/03/06 08:25:58;;;;;;;;;;;4.00;86.10;;;;;;5095168;28;19931;-78
2023/03/06 08:28:25;;;;;;;;;;;4.00;86.10;;;;;;5099679;28;19931;-78
2023/03/06 08:30:52;;;;;;;;;;;4.00;86.10;;;;;;5089613;28;19928;-78
2023/03/06 08:33:19;;;;;;;;;;;4.00;86.10;;;;;;5095989;28;19928;-78
2023/03/06 08:35:45;;;;;;;;;;;4.00;86.10;;;;;;5093718;28;20014;-78
2023/03/06 08:38:12;;;;;;;;;;;4.00;86.10;;;;;;5091385;28;19928;-78
2023/03/06 08:40:39;;;;;;;;;;;4.00;86.10;;;;;;5096244;28;19935;-77
2023/03/06 08:43:08;;;;;;;;;;;4.00;86.20;;;;;;5100665;28;19928;-78
2023/03/06 08:45:35;;;;;;;;;;;4.00;86.30;;;;;;5092896;28;20740;-77
2023/03/06 08:48:01;;;;;;;;;;;4.00;86.20;;;;;;5094308;28;19932;-78
2023/03/06 08:50:28;;;;;;;;;;;4.00;86.20;;;;;;5095574;28;19939;-78
2023/03/06 08:52:54;;;;;;;;;;;4.00;86.30;;;;;;5099078;28;19935;-78
2023/03/06 08:55:21;;;;;;;;;;;4.00;86.30;;;;;;5100778;28;19938;-78
2023/03/06 08:57:48;;;;;;;;;;;4.00;86.30;;;;;;5095118;28;20423;-78
2023/03/06 09:00:17;;;;;;;;;;;4.00;86.40;;;;;;5099557;28;19924;-78
2023/03/06 09:02:45;;;;;;;;;;;4.00;86.40;;;;;;5093440;28;20702;-78
2023/03/06 09:05:12;;;;;;;;;;;4.00;86.40;;;;;;5097573;27;19928;-77
2023/03/06 09:07:38;;;;;;;;;;;4.00;86.40;;;;;;5094063;28;19961;-78
2023/03/06 09:10:05;;;;;;;;;;;4.10;86.40;;;;;;5098293;28;19927;-77
2023/03/06 09:12:32;;;;;;;;;;;4.00;86.40;;;;;;5097395;27;20354;-78
2023/03/06 09:14:58;;;;;;;;;;;4.10;86.50;;;;;;5096396;28;19935;-78
2023/03/06 09:17:25;;;;;;;;;;;4.00;87.20;;;;;;5099303;27;19932;-78
2023/03/06 09:19:53;;;;;;;;;;;4.10;86.50;;;;;;5095981;28;20276;-78
2023/03/06 09:22:19;;;;;;;;;;;4.10;86.50;;;;;;5094611;27;19931;-77
2023/03/06 09:24:46;;;;;;;;;;;4.00;86.50;;;;;;5099594;28;19927;-78
2023/03/06 09:27:13;;;;;;;;;;;4.10;86.50;;;;;;5095705;28;19928;-78
2023/03/06 09:29:40;;;;;;;;;;;4.10;86.50;;;;;;5091305;28;19931;-77
2023/03/06 09:32:06;;;;;;;;;;;4.10;86.70;;;;;;5098881;28;19927;-78
2023/03/06 09:34:33;;;;;;;;;;;4.10;86.80;;;;;;5097880;28;19936;-78
2023/03/06 09:37:03;;;;;;;;;;;4.10;86.90;;;;;;5094629;28;19928;-77
2023/03/06 09:39:29;;;;;;;;;;;4.10;86.90;;;;;;5092347;28;19932;-77
2023/03/06 09:41:57;;;;;;;;;;;4.10;87.00;;;;;;5095276;28;19928;-78
2023/03/06 09:44:26;;;;;;;;;;;4.10;87.00;;;;;;5097994;28;20581;-78
2023/03/06 09:47:20;;;;;;;;;;;4.10;87.00;;;;;;5094001;28;20018;-79
2023/03/06 09:50:00;;;;;;;;;;;4.20;87.00;;;;;;5088836;28;20480;-78
2023/03/06 09:52:33;;;;;;;;;;;4.10;86.80;;;;;;5100940;28;19939;-78
2023/03/06 09:55:02;;;;;;;;;;;4.20;86.70;;;;;;5090183;27;19935;-77
2023/03/06 09:57:30;;;;;;;;;;;4.20;86.70;;;;;;5094860;28;19940;-78
2023/03/06 09:59:58;;;;;;;;;;;4.20;86.60;;;;;;5094827;28;19933;-78
2023/03/06 10:02:30;;;;;;;;;;;4.20;86.60;;;;;;5098940;28;19961;-78
2023/03/06 10:04:59;;;;;;;;;;;4.20;86.50;;;;;;5103317;28;20689;-77
2023/03/06 10:07:33;;;;;;;;;;;4.30;86.40;;;;;;5100632;27;19984;-79
2023/03/06 10:10:02;;;;;;;;;;;4.20;86.30;;;;;;5093160;28;19928;-78
2023/03/06 10:12:33;;;;;;;;;;;4.30;86.30;;;;;;5093844;28;19943;-78
2023/03/06 10:15:02;;;;;;;;;;;4.30;87.10;;;;;;5097925;28;20917;-78
2023/03/06 10:17:33;;;;;;;;;;;4.30;86.20;;;;;;5094706;28;19935;-78
2023/03/06 10:20:09;;;;;;;;;;;4.30;86.20;;;;;;5093519;28;20463;-78
2023/03/06 10:22:38;;;;;;;;;;;4.30;86.20;;;;;;5092258;28;20004;-77
2023/03/06 10:25:12;;;;;;;;;;;4.30;86.10;;;;;;5097773;28;19934;-78
2023/03/06 10:27:43;;;;;;;;;;;4.30;86.00;;;;;;5092503;28;19939;-79
2023/03/06 10:30:18;;;;;;;;;;;4.30;85.90;;;;;;5089878;28;19985;-80
2023/03/06 10:32:47;;;;;;;;;;;4.30;85.80;;;;;;5100270;27;19959;-78
2023/03/06 10:35:16;;;;;;;;;;;4.30;85.80;;;;;;5099410;28;20035;-77
2023/03/06 10:37:42;;;;;;;;;;;4.30;85.80;;;;;;5100412;28;20401;-77
2023/03/06 10:40:15;;;;;;;;;;;4.40;85.70;;;;;;5100387;28;19981;-76
2023/03/06 10:42:42;;;;;;;;;;;4.40;85.70;;;;;;5093177;27;19931;-77
2023/03/06 10:45:09;;;;;;;;;;;4.40;85.50;;;;;;5097486;28;19939;-77
2023/03/06 10:47:37;;;;;;;;;;;4.40;85.50;;;;;;5104490;28;20309;-78
2023/03/06 10:50:05;;;;;;;;;;;4.40;85.40;;;;;;5098114;28;19935;-76
2023/03/06 10:52:32;;;;;;;;;;;4.40;85.30;;;;;;5109765;27;19932;-76
2023/03/06 10:55:18;;;;;;;;;;;4.50;85.30;;;;;;5106980;27;20432;-79
2023/03/06 10:57:45;;;;;;;;;;;4.50;85.20;;;;;;5107267;28;19936;-78
2023/03/06 11:00:23;;;;;;;;;;;4.50;85.00;;;;;;5102954;28;19927;-78
2023/03/06 11:03:03;;;;;;;;;;;4.50;85.00;;;;;;5093778;28;20327;-79
2023/03/06 11:05:30;;;;;;;;;;;4.60;84.90;;;;;;5093601;28;19928;-77
2023/03/06 11:07:58;;;;;;;;;;;4.60;84.80;;;;;;5100935;28;19931;-78
2023/03/06 11:10:25;;;;;;;;;;;4.60;84.70;;;;;;5094028;27;19932;-78
2023/03/06 11:13:00;;;;;;;;;;;4.60;84.60;;;;;;5096588;28;20279;-78
2023/03/06 11:15:27;;;;;;;;;;;4.70;84.60;;;;;;5098873;28;19928;-77
2023/03/06 11:17:55;;;;;;;;;;;4.60;84.50;;;;;;5089746;28;19934;-78
2023/03/06 11:20:23;;;;;;;;;;;4.70;84.50;;;;;;5085778;28;19936;-76
2023/03/06 11:22:51;;;;;;;;;;;4.70;84.40;;;;;;5098899;28;19927;-77
2023/03/06 11:25:19;;;;;;;;;;;4.80;84.40;;;;;;5096084;28;19958;-77
2023/03/06 11:27:49;;;;;;;;;;;4.70;84.30;;;;;;5090078;27;19939;-77
2023/03/06 11:30:18;;;;;;;;;;;4.70;84.20;;;;;;5094884;28;20405;-75
2023/03/06 11:32:49;;;;;;;;;;;4.70;84.10;;;;;;5098264;28;19939;-78
2023/03/06 11:35:19;;;;;;;;;;;4.80;84.10;;;;;;5098372;28;20308;-76
2023/03/06 11:37:50;;;;;;;;;;;4.80;83.90;;;;;;5097365;28;20014;-77
2023/03/06 11:40:20;;;;;;;;;;;4.80;83.80;;;;;;5085366;28;19953;-76
2023/03/06 11:42:51;;;;;;;;;;;4.80;83.70;;;;;;5084326;28;19928;-77
2023/03/06 11:45:21;;;;;;;;;;;4.80;83.70;;;;;;5088807;28;20000;-79
2023/03/06 11:47:52;;;;;;;;;;;4.80;83.40;;;;;;5089016;28;20376;-78
2023/03/06 11:50:21;;;;;;;;;;;4.80;83.20;;;;;;5087715;28;20470;-77
2023/03/06 11:52:48;;;;;;;;;;;4.90;83.10;;;;;;5085572;28;19928;-78
2023/03/06 11:55:16;;;;;;;;;;;4.80;83.00;;;;;;5088462;28;19932;-77
2023/03/06 11:57:46;;;;;;;;;;;4.90;82.90;;;;;;5088586;28;19931;-77
2023/03/06 12:00:29;;;;;;;;;;;4.90;82.80;;;;;;5096009;28;20403;-77
2023/03/06 12:03:02;;;;;;;;;;;4.90;82.70;;;;;;5093931;28;19932;-77
2023/03/06 12:05:34;;;;;;;;;;;4.90;82.50;;;;;;5102110;28;20394;-77
2023/03/06 12:08:04;;;;;;;;;;;4.90;82.40;;;;;;5097588;28;20026;-76
2023/03/06 12:10:33;;;;;;;;;;;4.90;82.40;;;;;;5091381;28;19928;-78
2023/03/06 12:13:09;;;;;;;;;;;4.90;82.30;;;;;;5090782;28;19973;-77
2023/03/06 12:15:44;;;;;;;;;;;4.90;82.10;;;;;;5099553;28;20005;-77
2023/03/06 12:18:20;;;;;;;;;;;4.90;82.60;;;;;;5099159;28;19981;-78
2023/03/06 12:20:51;;;;;;;;;;;5.00;81.90;;;;;;5097801;28;19981;-77
2023/03/06 12:23:27;;;;;;;;;;;5.00;81.70;;;;;;5093269;28;19936;-77
2023/03/06 12:25:55;;;;;;;;;;;5.00;81.60;;;;;;5094294;28;19967;-77
2023/03/06 12:28:28;;;;;;;;;;;5.00;81.70;;;;;;5097401;27;20453;-77
2023/03/06 12:31:11;;;;;;;;;;;5.00;81.60;;;;;;5090717;28;19973;-77
2023/03/06 12:33:43;;;;;;;;;;;5.00;81.60;;;;;;5099159;28;19932;-77
2023/03/06 12:36:19;;;;;;;;;;;5.00;81.50;;;;;;5095058;28;19932;-77
2023/03/06 12:38:57;;;;;;;;;;;5.00;81.40;;;;;;5094970;28;20021;-78
2023/03/06 12:41:30;;;;;;;;;;;5.00;81.40;;;;;;5101153;28;20470;-77
2023/03/06 12:44:01;;;;;;;;;;;5.00;81.40;;;;;;5100691;27;20056;-78
2023/03/06 12:46:29;;;;;;;;;;;5.00;81.40;;;;;;5089772;28;20687;-80
2023/03/06 12:49:01;;;;;;;;;;;5.10;81.30;;;;;;5094569;28;19996;-78
2023/03/06 12:51:28;;;;;;;;;;;5.10;81.20;;;;;;5089877;28;20662;-76
2023/03/06 12:53:57;;;;;;;;;;;5.10;81.20;;;;;;5096221;27;20010;-77
2023/03/06 12:56:23;;;;;;;;;;;5.10;81.30;;;;;;5090592;28;19935;-76
2023/03/06 12:58:51;;;;;;;;;;;5.10;81.20;;;;;;5092471;28;19938;-77
2023/03/06 13:01:36;;;;;;;;;;;5.10;81.20;;;;;;5087480;28;19931;-77
2023/03/06 13:04:19;;;;;;;;;;;5.10;81.30;;;;;;5095769;28;20518;-77
2023/03/06 13:06:55;;;;;;;;;;;5.10;81.30;;;;;;5088727;28;19928;-77
2023/03/06 13:09:26;;;;;;;;;;;5.10;81.40;;;;;;5090863;28;19996;-76
2023/03/06 13:12:16;;;;;;;;;;;5.10;81.60;;;;;;5093730;28;19928;-77
2023/03/06 13:14:52;;;;;;;;;;;5.10;81.80;;;;;;5094304;28;19988;-77
2023/03/06 13:17:27;;;;;;;;;;;5.10;82.20;;;;;;5089536;28;20206;-77
2023/03/06 13:20:12;;;;;;;;;;;5.10;82.50;;;;;;5090498;28;20531;-77
2023/03/06 13:22:39;;;;;;;;;;;5.10;82.50;;;;;;5091025;27;19935;-78
2023/03/06 13:25:25;;;;;;;;;;;5.10;82.60;;;;;;5092980;28;19938;-77
2023/03/06 13:28:00;;;;;;;;;;;5.10;82.70;;;;;;5090328;28;19931;-76
2023/03/06 13:30:41;;;;;;;;;;;5.10;82.90;;;;;;5089146;28;19943;-76
2023/03/06 13:33:23;;;;;;;;;;;5.10;83.00;;;;;;5093240;28;19928;-76
2023/03/06 13:35:55;;;;;;;;;;;5.10;83.00;;;;;;5085361;28;19932;-75
2023/03/06 13:38:36;;;;;;;;;;;5.10;83.20;;;;;;5090625;28;20398;-74
2023/03/06 13:41:17;;;;;;;;;;;5.10;83.20;;;;;;5089310;28;19932;-75
2023/03/06 13:43:45;;;;;;;;;;;5.10;83.30;;;;;;5069348;28;19932;-75
2023/03/06 13:46:23;;;;;;;;;;;5.10;83.40;;;;;;5088861;28;19988;-76
2023/03/06 13:49:02;;;;;;;;;;;5.10;83.40;;;;;;5093722;28;19955;-78
2023/03/06 13:51:33;;;;;;;;;;;5.10;83.50;;;;;;5091463;28;19932;-77
2023/03/06 13:54:11;;;;;;;;;;;5.10;83.50;;;;;;5084503;28;20648;-78
2023/03/06 13:56:56;;;;;;;;;;;5.10;83.50;;;;;;5093769;28;19924;-74
2023/03/06 13:59:31;;;;;;;;;;;5.10;83.60;;;;;;5091273;28;19928;-77
2023/03/06 14:02:01;;;;;;;;;;;5.10;83.50;;;;;;5091522;28;19935;-81
2023/03/06 14:04:33;;;;;;;;;;;5.10;83.60;;;;;;5090394;27;20384;-75
2023/03/06 14:07:10;;;;;;;;;;;5.10;83.60;;;;;;5091919;27;19931;-73
2023/03/06 14:09:38;;;;;;;;;;;5.10;83.70;;;;;;5096903;28;19932;-74
2023/03/06 14:12:06;;;;;;;;;;;5.10;83.60;;;;;;5090802;28;19939;-74
2023/03/06 14:14:35;;;;;;;;;;;5.20;83.70;;;;;;5097091;28;20612;-73
2023/03/06 14:17:03;;;;;;;;;;;5.20;83.70;;;;;;5091097;28;20402;-74
2023/03/06 14:19:32;;;;;;;;;;;5.10;83.60;;;;;;5091317;28;19939;-71
2023/03/06 14:21:59;;;;;;;;;;;5.10;83.50;;;;;;5093859;28;19984;-73
2023/03/06 14:24:33;;;;;;;;;;;5.10;83.40;;;;;;5094560;28;19932;-72
2023/03/06 14:26:59;;;;;;;;;;;5.10;83.30;;;;;;5099864;28;20659;-72
2023/03/06 14:29:27;;;;;;;;;;;5.10;83.30;;;;;;5098999;28;20134;-72
2023/03/06 14:31:54;;;;;;;;;;;5.10;83.30;;;;;;5091288;28;19924;-72
2023/03/06 14:34:22;;;;;;;;;;;5.10;83.30;;;;;;5096554;28;19924;-72
2023/03/06 14:36:49;;;;;;;;;;;5.10;83.20;;;;;;5096844;28;19935;-72
2023/03/06 14:39:19;;;;;;;;;;;5.10;83.20;;;;;;5093183;28;19932;-72